createdAt,value
2017-08-31T00:00:57.285Z,18.10
2017-08-31T00:03:23.703Z,18.10
2017-08-31T00:05:50.095Z,18.10
2017-08-31T00:08:16.475Z,18.10
2017-08-31T00:10:42.860Z,18.00
2017-08-31T00:13:09.351Z,18.00
2017-08-31T00:15:35.724Z,18.00
2017-08-31T00:18:02.162Z,18.00
2017-08-31T00:20:28.582Z,18.00
2017-08-31T00:22:55.067Z,18.00
2017-08-31T00:25:21.547Z,17.90
2017-08-31T00:27:47.987Z,17.90
2017-08-31T00:30:14.375Z,18.00
2017-08-31T00:32:40.815Z,17.90
2017-08-31T00:35:07.211Z,17.90
2017-08-31T00:37:33.639Z,17.80
2017-08-31T00:40:00.047Z,17.80
2017-08-31T00:42:26.419Z,17.80
2017-08-31T00:44:52.923Z,17.80
2017-08-31T00:47:19.411Z,17.70
2017-08-31T00:49:45.832Z,17.70
2017-08-31T00:52:12.259Z,17.70
2017-08-31T00:54:38.759Z,17.70
2017-08-31T00:57:05.211Z,17.70
2017-08-31T00:59:31.625Z,17.70
2017-08-31T01:01:58.027Z,17.60
2017-08-31T01:04:24.568Z,17.60
2017-08-31T01:06:50.960Z,17.60
2017-08-31T01:09:17.355Z,17.50
2017-08-31T01:11:43.876Z,17.50
2017-08-31T01:14:10.368Z,17.50
2017-08-31T01:16:36.744Z,17.60
2017-08-31T01:19:03.163Z,17.50
2017-08-31T01:21:29.603Z,17.50
2017-08-31T01:23:56.132Z,17.50
2017-08-31T01:26:22.559Z,17.50
2017-08-31T01:28:49.012Z,17.40
2017-08-31T01:31:15.449Z,17.40
2017-08-31T01:33:42.119Z,17.30
2017-08-31T01:36:08.538Z,17.30
2017-08-31T01:38:34.951Z,17.40
2017-08-31T01:41:01.516Z,17.30
2017-08-31T01:43:28.123Z,17.30
2017-08-31T01:45:54.539Z,17.30
2017-08-31T01:48:20.987Z,17.30
2017-08-31T01:50:47.436Z,17.20
2017-08-31T01:53:13.932Z,17.20
2017-08-31T01:55:40.351Z,17.20
2017-08-31T01:58:06.782Z,17.20
2017-08-31T02:00:33.216Z,17.10
2017-08-31T02:02:59.667Z,17.10
2017-08-31T02:05:26.093Z,17.10
2017-08-31T02:07:52.596Z,17.00
2017-08-31T02:10:18.980Z,17.00
2017-08-31T02:12:45.487Z,17.00
2017-08-31T02:15:11.854Z,17.00
2017-08-31T02:17:38.292Z,17.00
2017-08-31T02:20:04.680Z,17.00
2017-08-31T02:22:31.095Z,16.90
2017-08-31T02:24:57.584Z,16.90
2017-08-31T02:27:24.035Z,16.90
2017-08-31T02:29:50.631Z,16.90
2017-08-31T02:32:17.043Z,16.80
2017-08-31T02:34:43.508Z,16.80
2017-08-31T02:37:09.929Z,16.90
2017-08-31T02:39:36.337Z,16.80
2017-08-31T02:42:02.957Z,16.80
2017-08-31T02:44:29.711Z,16.80
2017-08-31T02:46:56.111Z,16.80
2017-08-31T02:49:22.520Z,16.80
2017-08-31T02:51:48.897Z,16.70
2017-08-31T02:54:15.547Z,16.70
2017-08-31T02:56:41.927Z,16.70
2017-08-31T02:59:08.311Z,16.70
2017-08-31T03:01:34.711Z,16.70
2017-08-31T03:04:01.177Z,16.70
2017-08-31T03:06:27.660Z,16.70
2017-08-31T03:08:54.075Z,16.70
2017-08-31T03:11:20.457Z,16.70
2017-08-31T03:13:46.948Z,16.70
2017-08-31T03:16:13.352Z,16.70
2017-08-31T03:18:39.739Z,16.70
2017-08-31T03:21:06.172Z,16.60
2017-08-31T03:23:32.663Z,16.70
2017-08-31T03:25:59.075Z,16.70
2017-08-31T03:28:25.465Z,16.60
2017-08-31T03:30:52.044Z,16.60
2017-08-31T03:33:18.504Z,16.60
2017-08-31T03:35:44.915Z,16.50
2017-08-31T03:38:11.311Z,16.50
2017-08-31T03:40:37.716Z,16.50
2017-08-31T03:43:04.100Z,16.50
2017-08-31T03:45:30.507Z,16.50
2017-08-31T03:47:56.903Z,16.50
2017-08-31T03:50:23.303Z,16.40
2017-08-31T03:52:49.756Z,16.40
2017-08-31T03:55:16.186Z,16.40
2017-08-31T03:57:42.598Z,16.40
2017-08-31T04:00:08.976Z,16.40
2017-08-31T04:02:35.382Z,16.40
2017-08-31T04:05:01.759Z,16.40
2017-08-31T04:07:28.135Z,16.40
2017-08-31T04:09:54.530Z,16.40
2017-08-31T04:12:20.911Z,16.40
2017-08-31T04:14:47.339Z,16.40
2017-08-31T04:17:13.736Z,16.40
2017-08-31T04:19:40.131Z,16.40
2017-08-31T04:22:06.540Z,16.40
2017-08-31T04:24:32.958Z,16.40
2017-08-31T04:26:59.419Z,16.40
2017-08-31T04:29:25.891Z,16.40
2017-08-31T04:31:52.286Z,16.40
2017-08-31T04:34:18.731Z,16.40
2017-08-31T04:36:45.081Z,16.30
2017-08-31T04:39:11.551Z,16.30
2017-08-31T04:41:37.951Z,16.30
2017-08-31T04:44:05.339Z,16.30
2017-08-31T04:46:31.778Z,16.30
2017-08-31T04:48:58.162Z,16.30
2017-08-31T04:51:24.542Z,16.40
2017-08-31T04:53:50.967Z,16.40
2017-08-31T04:56:17.353Z,16.50
2017-08-31T04:58:43.734Z,16.50
2017-08-31T05:01:10.224Z,16.50
2017-08-31T05:03:36.689Z,16.50
2017-08-31T05:06:03.620Z,16.50
2017-08-31T05:08:30.074Z,16.50
2017-08-31T05:10:56.526Z,16.60
2017-08-31T05:13:22.951Z,16.70
2017-08-31T05:15:49.355Z,16.80
2017-08-31T05:18:15.823Z,16.90
2017-08-31T05:20:42.256Z,16.90
2017-08-31T05:23:08.670Z,17.00
2017-08-31T05:25:35.115Z,17.00
2017-08-31T05:28:01.547Z,17.10
2017-08-31T05:30:28.344Z,17.10
2017-08-31T05:32:54.859Z,17.20
2017-08-31T05:35:21.355Z,17.30
2017-08-31T05:37:47.819Z,17.30
2017-08-31T05:40:14.249Z,17.30
2017-08-31T05:42:40.686Z,17.40
2017-08-31T05:45:07.111Z,17.50
2017-08-31T05:47:33.515Z,17.50
2017-08-31T05:49:59.962Z,17.50
2017-08-31T05:52:26.371Z,17.60
2017-08-31T05:54:52.804Z,17.70
2017-08-31T05:57:19.248Z,17.70
2017-08-31T05:59:45.695Z,17.70
2017-08-31T06:02:12.138Z,17.70
2017-08-31T06:04:38.551Z,17.80
2017-08-31T06:07:04.991Z,17.90
2017-08-31T06:09:31.395Z,18.00
2017-08-31T06:11:57.830Z,18.10
2017-08-31T06:14:24.267Z,18.20
2017-08-31T06:16:50.672Z,18.30
2017-08-31T06:19:17.078Z,18.40
2017-08-31T06:21:43.463Z,18.50
2017-08-31T06:24:09.898Z,18.50
2017-08-31T06:26:36.279Z,18.50
2017-08-31T06:29:02.718Z,18.60
2017-08-31T06:31:29.115Z,18.80
2017-08-31T06:33:55.503Z,18.90
2017-08-31T06:36:21.915Z,18.90
2017-08-31T06:38:48.308Z,18.90
2017-08-31T06:41:14.724Z,18.90
2017-08-31T06:43:41.147Z,18.90
2017-08-31T06:46:07.642Z,18.90
2017-08-31T06:48:34.043Z,19.00
2017-08-31T06:51:00.423Z,19.00
2017-08-31T06:53:26.833Z,19.10
2017-08-31T06:55:53.267Z,19.10
2017-08-31T06:58:19.686Z,19.20
2017-08-31T07:00:46.099Z,19.30
2017-08-31T07:03:12.514Z,19.30
2017-08-31T07:05:38.900Z,19.40
2017-08-31T07:08:05.284Z,19.40
2017-08-31T07:10:31.720Z,19.40
2017-08-31T07:12:58.120Z,19.50
2017-08-31T07:15:24.528Z,19.50
2017-08-31T07:17:50.911Z,19.60
2017-08-31T07:20:17.291Z,19.60
2017-08-31T07:22:43.692Z,19.70
2017-08-31T07:25:10.083Z,19.80
2017-08-31T07:27:36.534Z,19.80
2017-08-31T07:30:02.954Z,19.90
2017-08-31T07:32:29.348Z,20.00
2017-08-31T07:34:55.795Z,20.00
2017-08-31T07:37:22.182Z,20.10
2017-08-31T07:39:48.600Z,20.20
2017-08-31T07:42:14.984Z,20.30
2017-08-31T07:44:41.383Z,20.30
2017-08-31T07:47:07.802Z,20.40
2017-08-31T07:49:34.187Z,20.50
2017-08-31T07:52:00.626Z,20.60
2017-08-31T07:54:27.003Z,20.70
2017-08-31T07:56:53.404Z,20.70
2017-08-31T07:59:19.839Z,20.80
2017-08-31T08:01:46.255Z,20.90
2017-08-31T08:04:12.640Z,21.00
2017-08-31T08:06:39.052Z,21.10
2017-08-31T08:09:05.484Z,21.20
2017-08-31T08:11:31.855Z,21.30
2017-08-31T08:13:58.274Z,21.40
2017-08-31T08:16:24.744Z,21.40
2017-08-31T08:18:51.159Z,21.50
2017-08-31T08:21:17.566Z,21.50
2017-08-31T08:23:43.947Z,21.60
2017-08-31T08:26:10.336Z,21.60
2017-08-31T08:28:36.735Z,21.80
2017-08-31T08:31:03.135Z,21.90
2017-08-31T08:33:29.532Z,22.00
2017-08-31T08:35:55.952Z,22.00
2017-08-31T08:38:22.371Z,22.20
2017-08-31T08:40:48.784Z,22.30
2017-08-31T08:43:15.218Z,22.40
2017-08-31T08:45:41.599Z,22.40
2017-08-31T08:48:07.999Z,22.50
2017-08-31T08:50:34.421Z,22.60
2017-08-31T08:53:00.823Z,22.70
2017-08-31T08:55:28.079Z,22.80
2017-08-31T08:57:54.479Z,22.80
2017-08-31T09:00:20.930Z,22.90
2017-08-31T09:02:47.328Z,23.00
2017-08-31T09:05:13.743Z,23.10
2017-08-31T09:07:40.144Z,23.20
2017-08-31T09:10:06.527Z,23.40
2017-08-31T09:12:32.928Z,23.60
2017-08-31T09:14:59.326Z,23.60
2017-08-31T09:17:25.727Z,23.80
2017-08-31T09:19:52.439Z,23.90
2017-08-31T09:22:18.891Z,24.00
2017-08-31T09:24:45.752Z,24.10
2017-08-31T09:27:12.146Z,24.20
2017-08-31T09:29:38.548Z,24.20
2017-08-31T09:32:04.931Z,24.30
2017-08-31T09:34:31.339Z,24.40
2017-08-31T09:36:57.726Z,24.40
2017-08-31T09:39:24.139Z,24.60
2017-08-31T09:41:50.515Z,24.70
2017-08-31T09:44:16.931Z,24.70
2017-08-31T09:46:43.331Z,24.80
2017-08-31T09:49:09.744Z,24.90
2017-08-31T09:51:36.146Z,24.90
2017-08-31T09:54:02.532Z,25.00
2017-08-31T09:56:28.907Z,25.00
2017-08-31T09:58:55.331Z,25.20
2017-08-31T10:01:22.076Z,25.20
2017-08-31T10:03:48.594Z,25.20
2017-08-31T10:06:15.049Z,25.30
2017-08-31T10:08:41.475Z,25.40
2017-08-31T10:11:07.911Z,25.50
2017-08-31T10:13:34.336Z,25.60
2017-08-31T10:16:00.775Z,25.70
2017-08-31T10:18:27.152Z,25.80
2017-08-31T10:20:53.543Z,25.80
2017-08-31T10:23:19.935Z,25.90
2017-08-31T10:25:46.335Z,26.00
2017-08-31T10:28:12.765Z,26.20
2017-08-31T10:30:39.295Z,26.20
2017-08-31T10:33:05.740Z,26.40
2017-08-31T10:35:32.155Z,26.60
2017-08-31T10:37:58.606Z,26.80
2017-08-31T10:40:25.044Z,26.80
2017-08-31T10:42:51.491Z,26.90
2017-08-31T10:45:17.915Z,27.00
2017-08-31T10:47:44.320Z,27.20
2017-08-31T10:50:10.782Z,27.30
2017-08-31T10:52:37.191Z,27.40
2017-08-31T10:55:03.675Z,27.40
2017-08-31T10:57:30.135Z,27.50
2017-08-31T10:59:56.564Z,27.60
2017-08-31T11:02:23.001Z,27.70
2017-08-31T11:04:49.457Z,27.70
2017-08-31T11:07:15.899Z,27.80
2017-08-31T11:09:42.335Z,27.80
2017-08-31T11:12:08.763Z,27.90
2017-08-31T11:14:35.199Z,28.00
2017-08-31T11:17:01.620Z,28.20
2017-08-31T11:19:28.046Z,28.40
2017-08-31T11:21:54.466Z,28.50
2017-08-31T11:24:20.930Z,28.60
2017-08-31T11:26:47.357Z,28.70
2017-08-31T11:29:13.932Z,28.90
2017-08-31T11:31:40.258Z,29.00
2017-08-31T11:34:06.719Z,29.20
2017-08-31T11:36:33.277Z,29.30
2017-08-31T11:38:59.530Z,29.50
2017-08-31T11:41:25.951Z,29.60
2017-08-31T11:43:52.318Z,29.70
2017-08-31T11:46:18.818Z,29.90
2017-08-31T11:48:45.204Z,30.10
2017-08-31T11:51:11.607Z,30.20
2017-08-31T11:53:38.015Z,30.40
2017-08-31T11:56:04.415Z,30.60
2017-08-31T11:58:30.828Z,30.90
2017-08-31T12:00:57.248Z,31.30
2017-08-31T12:03:23.634Z,31.50
2017-08-31T12:05:50.067Z,31.70
2017-08-31T12:08:16.479Z,31.70
2017-08-31T12:10:42.922Z,32.20
2017-08-31T12:13:09.831Z,32.50
2017-08-31T12:15:36.313Z,32.70
2017-08-31T12:18:02.720Z,33.10
2017-08-31T12:20:29.495Z,33.30
2017-08-31T12:22:56.243Z,33.50
2017-08-31T12:25:22.642Z,33.60
2017-08-31T12:27:49.035Z,33.60
2017-08-31T12:30:15.491Z,33.50
2017-08-31T12:32:41.908Z,33.70
2017-08-31T12:35:15.203Z,34.00
2017-08-31T12:37:41.623Z,34.20
2017-08-31T12:40:08.063Z,34.30
2017-08-31T12:42:34.459Z,34.40
2017-08-31T12:45:00.839Z,34.50
2017-08-31T12:47:27.231Z,34.50
2017-08-31T12:49:54.371Z,34.40
2017-08-31T12:52:20.758Z,34.30
2017-08-31T12:54:47.175Z,34.80
2017-08-31T12:57:13.631Z,35.00
2017-08-31T12:59:47.088Z,34.60
2017-08-31T13:02:13.471Z,34.90
2017-08-31T13:04:39.879Z,35.20
2017-08-31T13:07:06.283Z,35.30
2017-08-31T13:09:32.727Z,35.60
2017-08-31T13:11:59.157Z,35.20
2017-08-31T13:14:25.570Z,35.20
2017-08-31T13:16:51.973Z,34.70
2017-08-31T13:19:18.347Z,34.80
2017-08-31T13:21:44.777Z,34.70
2017-08-31T13:24:11.715Z,34.70
2017-08-31T13:26:38.179Z,34.90
2017-08-31T13:29:04.579Z,34.80
2017-08-31T13:31:30.987Z,34.30
2017-08-31T13:33:57.404Z,34.00
2017-08-31T13:36:23.840Z,34.10
2017-08-31T13:38:50.256Z,34.50
2017-08-31T13:41:16.639Z,35.10
2017-08-31T13:43:43.030Z,34.90
2017-08-31T13:46:09.475Z,34.90
2017-08-31T13:48:35.894Z,34.90
2017-08-31T13:51:02.311Z,35.00
2017-08-31T13:53:28.696Z,34.70
2017-08-31T13:55:55.108Z,35.00
2017-08-31T13:58:21.484Z,34.60
2017-08-31T14:00:47.895Z,34.40
2017-08-31T14:03:14.334Z,34.40
2017-08-31T14:05:41.453Z,34.50
2017-08-31T14:08:07.959Z,34.50
2017-08-31T14:10:34.374Z,34.60
2017-08-31T14:13:00.767Z,34.70
2017-08-31T14:15:27.183Z,34.90
2017-08-31T14:17:53.598Z,35.30
2017-08-31T14:20:19.999Z,35.30
2017-08-31T14:22:46.411Z,35.40
2017-08-31T14:25:12.819Z,35.40
2017-08-31T14:27:39.214Z,35.60
2017-08-31T14:30:05.615Z,35.60
2017-08-31T14:32:32.036Z,35.40
2017-08-31T14:34:58.448Z,35.50
2017-08-31T14:37:24.842Z,35.20
2017-08-31T14:39:51.269Z,34.90
2017-08-31T14:42:17.674Z,35.00
2017-08-31T14:44:44.086Z,35.20
2017-08-31T14:47:10.488Z,35.20
2017-08-31T14:49:36.915Z,35.30
2017-08-31T14:52:03.335Z,35.20
2017-08-31T14:54:29.771Z,35.30
2017-08-31T14:56:56.207Z,35.10
2017-08-31T14:59:22.639Z,35.20
2017-08-31T15:01:49.164Z,35.00
2017-08-31T15:04:15.714Z,34.70
2017-08-31T15:06:42.251Z,34.50
2017-08-31T15:09:08.627Z,34.20
2017-08-31T15:11:35.039Z,33.80
2017-08-31T15:14:03.241Z,33.60
2017-08-31T15:16:30.004Z,33.10
2017-08-31T15:18:57.105Z,32.90
2017-08-31T15:21:23.766Z,32.00
2017-08-31T15:23:50.408Z,31.70
2017-08-31T15:26:16.855Z,31.60
2017-08-31T15:28:43.274Z,31.60
2017-08-31T15:31:10.055Z,31.40
2017-08-31T15:33:36.658Z,31.30
2017-08-31T15:36:03.123Z,31.20
2017-08-31T15:38:29.527Z,31.20
2017-08-31T15:40:56.404Z,30.80
2017-08-31T15:43:22.961Z,30.70
2017-08-31T15:45:50.005Z,30.40
2017-08-31T15:48:16.740Z,30.30
2017-08-31T15:50:43.156Z,30.40
2017-08-31T15:53:09.824Z,30.30
2017-08-31T15:55:36.325Z,30.20
2017-08-31T15:58:02.907Z,30.20
2017-08-31T16:00:29.559Z,30.10
2017-08-31T16:02:56.071Z,30.10
2017-08-31T16:05:22.477Z,30.00
2017-08-31T16:07:48.910Z,29.90
2017-08-31T16:10:15.286Z,29.90
2017-08-31T16:12:41.679Z,29.80
2017-08-31T16:15:08.092Z,29.80
2017-08-31T16:17:34.488Z,29.70
2017-08-31T16:20:01.116Z,29.60
2017-08-31T16:22:27.618Z,29.60
2017-08-31T16:24:54.027Z,29.60
2017-08-31T16:27:20.463Z,29.50
2017-08-31T16:29:47.131Z,29.50
2017-08-31T16:32:13.640Z,29.40
2017-08-31T16:34:40.133Z,29.30
2017-08-31T16:37:06.544Z,29.30
2017-08-31T16:39:33.292Z,29.20
2017-08-31T16:41:59.795Z,29.20
2017-08-31T16:44:26.263Z,29.10
2017-08-31T16:46:53.048Z,29.10
2017-08-31T16:49:19.454Z,29.10
2017-08-31T16:51:45.856Z,29.00
2017-08-31T16:54:12.273Z,29.00
2017-08-31T16:56:38.655Z,28.90
2017-08-31T16:59:05.049Z,28.80
2017-08-31T17:01:31.574Z,28.80
2017-08-31T17:03:58.221Z,28.70
2017-08-31T17:06:24.637Z,28.70
2017-08-31T17:08:51.424Z,28.60
2017-08-31T17:11:17.814Z,28.50
2017-08-31T17:13:44.393Z,28.50
2017-08-31T17:16:10.805Z,28.40
2017-08-31T17:18:37.283Z,28.30
2017-08-31T17:21:03.703Z,28.20
2017-08-31T17:23:30.119Z,28.20
2017-08-31T17:25:56.510Z,28.10
2017-08-31T17:28:22.924Z,28.00
2017-08-31T17:30:49.331Z,28.00
2017-08-31T17:33:15.763Z,27.90
2017-08-31T17:35:42.250Z,27.80
2017-08-31T17:38:08.664Z,27.80
2017-08-31T17:40:35.043Z,27.70
2017-08-31T17:43:01.460Z,27.60
2017-08-31T17:45:27.903Z,27.40
2017-08-31T17:47:54.368Z,27.40
2017-08-31T17:50:20.764Z,27.20
2017-08-31T17:52:47.186Z,27.20
2017-08-31T17:55:13.567Z,27.20
2017-08-31T17:57:39.938Z,27.10
2017-08-31T18:00:06.392Z,27.10
2017-08-31T18:02:33.667Z,27.00
2017-08-31T18:05:00.094Z,26.90
2017-08-31T18:07:26.472Z,26.90
2017-08-31T18:09:52.863Z,26.80
2017-08-31T18:12:19.283Z,26.80
2017-08-31T18:14:45.677Z,26.70
2017-08-31T18:17:12.039Z,26.60
2017-08-31T18:19:38.420Z,26.60
2017-08-31T18:22:04.827Z,26.50
2017-08-31T18:24:31.247Z,26.40
2017-08-31T18:26:57.624Z,26.40
2017-08-31T18:29:24.037Z,26.40
2017-08-31T18:31:50.436Z,26.40
2017-08-31T18:34:16.847Z,26.30
2017-08-31T18:36:43.227Z,26.30
2017-08-31T18:39:09.643Z,26.20
2017-08-31T18:41:36.047Z,26.20
2017-08-31T18:44:02.840Z,26.20
2017-08-31T18:46:29.314Z,26.10
2017-08-31T18:48:55.714Z,26.10
2017-08-31T18:51:22.111Z,26.10
2017-08-31T18:53:48.512Z,26.00
2017-08-31T18:56:14.930Z,25.90
2017-08-31T18:58:41.343Z,25.80
2017-08-31T19:01:08.008Z,25.90
2017-08-31T19:03:34.436Z,25.90
2017-08-31T19:06:00.856Z,25.90
2017-08-31T19:08:27.616Z,25.90
2017-08-31T19:10:54.085Z,25.80
2017-08-31T19:13:20.483Z,25.90
2017-08-31T19:15:46.871Z,25.80
2017-08-31T19:18:13.295Z,25.80
2017-08-31T19:20:39.711Z,25.80
2017-08-31T19:23:06.115Z,25.70
2017-08-31T19:25:32.551Z,25.60
2017-08-31T19:27:58.942Z,25.60
2017-08-31T19:30:26.111Z,25.50
2017-08-31T19:32:52.840Z,25.40
2017-08-31T19:35:19.548Z,25.30
2017-08-31T19:37:46.799Z,25.20
2017-08-31T19:40:13.203Z,25.10
2017-08-31T19:42:39.992Z,25.10
2017-08-31T19:45:06.408Z,25.10
2017-08-31T19:47:32.800Z,25.00
2017-08-31T19:49:59.842Z,24.90
2017-08-31T19:52:26.491Z,24.90
2017-08-31T19:54:53.195Z,24.80
2017-08-31T19:57:19.703Z,24.70
2017-08-31T19:59:46.144Z,24.60
2017-08-31T20:02:12.704Z,24.50
2017-08-31T20:04:39.128Z,24.40
2017-08-31T20:07:05.532Z,24.40
2017-08-31T20:09:31.956Z,24.40
2017-08-31T20:11:58.328Z,24.30
2017-08-31T20:14:24.734Z,24.20
2017-08-31T20:16:51.241Z,24.10
2017-08-31T20:19:17.639Z,24.10
2017-08-31T20:21:44.031Z,24.10
2017-08-31T20:24:10.457Z,24.00
2017-08-31T20:26:36.835Z,24.00
2017-08-31T20:29:03.216Z,23.90
2017-08-31T20:31:29.987Z,23.90
2017-08-31T20:33:56.490Z,23.80
2017-08-31T20:36:22.895Z,23.80
2017-08-31T20:38:49.466Z,23.80
2017-08-31T20:41:15.851Z,23.70
2017-08-31T20:43:42.299Z,23.60
2017-08-31T20:46:08.689Z,23.60
2017-08-31T20:48:35.095Z,23.50
2017-08-31T20:51:01.495Z,23.50
2017-08-31T20:53:27.912Z,23.50
2017-08-31T20:55:54.295Z,23.40
2017-08-31T20:58:20.680Z,23.40
2017-08-31T21:00:47.104Z,23.30
2017-08-31T21:03:13.484Z,23.30
2017-08-31T21:05:39.871Z,23.20
2017-08-31T21:08:06.271Z,23.20
2017-08-31T21:10:32.670Z,23.20
2017-08-31T21:12:59.087Z,23.20
2017-08-31T21:15:25.496Z,23.10
2017-08-31T21:17:51.906Z,23.00
2017-08-31T21:20:18.300Z,23.00
2017-08-31T21:22:44.768Z,22.90
2017-08-31T21:25:11.209Z,22.90
2017-08-31T21:27:37.627Z,22.90
2017-08-31T21:30:04.031Z,22.80
2017-08-31T21:32:30.727Z,22.80
2017-08-31T21:34:57.276Z,22.70
2017-08-31T21:37:23.815Z,22.70
2017-08-31T21:39:50.389Z,22.70
2017-08-31T21:42:16.924Z,22.60
2017-08-31T21:44:43.420Z,22.70
2017-08-31T21:47:09.965Z,22.70
2017-08-31T21:49:36.392Z,22.60
2017-08-31T21:52:02.766Z,22.60
2017-08-31T21:54:29.220Z,22.60
2017-08-31T21:56:55.604Z,22.60
2017-08-31T21:59:22.019Z,22.60
2017-08-31T22:01:48.543Z,22.60
2017-08-31T22:04:14.924Z,22.60
2017-08-31T22:06:41.307Z,22.60
2017-08-31T22:09:07.713Z,22.70
2017-08-31T22:11:34.103Z,22.70
2017-08-31T22:14:00.511Z,22.70
2017-08-31T22:16:26.912Z,22.70
2017-08-31T22:18:53.311Z,22.70
2017-08-31T22:21:19.711Z,22.70
2017-08-31T22:23:46.227Z,22.70
2017-08-31T22:26:12.612Z,22.70
2017-08-31T22:28:39.015Z,22.60
2017-08-31T22:31:05.407Z,22.60
2017-08-31T22:33:31.837Z,22.60
2017-08-31T22:35:58.220Z,22.50
2017-08-31T22:38:24.637Z,22.50
2017-08-31T22:40:51.036Z,22.40
2017-08-31T22:43:17.451Z,22.30
2017-08-31T22:45:43.832Z,22.30
2017-08-31T22:48:10.240Z,22.20
2017-08-31T22:50:36.664Z,22.20
2017-08-31T22:53:03.075Z,22.20
2017-08-31T22:55:29.453Z,22.10
2017-08-31T22:58:01.867Z,22.10
2017-08-31T23:00:28.268Z,22.10
2017-08-31T23:02:54.684Z,22.10
2017-08-31T23:05:21.044Z,22.00
2017-08-31T23:07:47.447Z,21.90
2017-08-31T23:10:13.838Z,21.90
2017-08-31T23:12:40.224Z,21.90
2017-08-31T23:15:06.642Z,21.90
2017-08-31T23:17:33.106Z,21.90
2017-08-31T23:19:59.541Z,21.80
2017-08-31T23:22:25.940Z,21.80
2017-08-31T23:24:52.332Z,21.80
2017-08-31T23:27:18.795Z,21.80
2017-08-31T23:29:45.173Z,21.70
2017-08-31T23:32:11.562Z,21.70
2017-08-31T23:34:37.949Z,21.70
2017-08-31T23:37:04.355Z,21.60
2017-08-31T23:39:30.804Z,21.50
2017-08-31T23:41:57.200Z,21.50
2017-08-31T23:44:23.607Z,21.50
2017-08-31T23:46:50.027Z,21.50
2017-08-31T23:49:16.448Z,21.50
2017-08-31T23:51:42.853Z,21.50
2017-08-31T23:54:09.251Z,21.40
2017-08-31T23:56:35.639Z,21.40
2017-08-31T23:59:02.015Z,21.30
